sensor_id;sensor_type;location;lat;lon;timestamp;pressure;altitude;pressure_sealevel;temperature;humidity
75304;BME280;63900;50.916;6.988;2022-09-28T15:27:54;99389.81;;;12.70;60.40
75304;BME280;63900;50.916;6.988;2022-09-28T15:32:49;99386.59;;;12.64;63.59
75304;BME280;63900;50.916;6.988;2022-09-28T15:35:20;99392.13;;;12.50;64.91
75304;BME280;63900;50.916;6.988;2022-09-28T15:37:48;99386.78;;;12.27;67.11
75304;BME280;63900;50.916;6.988;2022-09-28T15:40:21;99399.81;;;12.21;65.45
75304;BME280;63900;50.916;6.988;2022-09-28T15:42:51;99394.03;;;12.13;71.16
75304;BME280;63900;50.916;6.988;2022-09-28T15:45:29;99397.31;;;11.86;71.40
75304;BME280;63900;50.916;6.988;2022-09-28T15:48:21;99399.91;;;11.86;73.97
75304;BME280;63900;50.916;6.988;2022-09-28T15:50:57;99405.94;;;11.85;70.69
75304;BME280;63900;50.916;6.988;2022-09-28T15:53:24;99409.19;;;11.91;71.86
75304;BME280;63900;50.916;6.988;2022-09-28T15:55:50;99404.91;;;11.92;74.85
75304;BME280;63900;50.916;6.988;2022-09-28T15:58:17;99402.41;;;11.89;74.88
75304;BME280;63900;50.916;6.988;2022-09-28T16:00:45;99413.44;;;11.92;75.15
75304;BME280;63900;50.916;6.988;2022-09-28T16:05:45;99407.34;;;11.96;74.19
75304;BME280;63900;50.916;6.988;2022-09-28T16:08:17;99412.50;;;11.96;73.83
75304;BME280;63900;50.916;6.988;2022-09-28T16:11:03;99416.91;;;11.91;74.51
75304;BME280;63900;50.916;6.988;2022-09-28T16:13:31;99410.59;;;11.69;71.94
75304;BME280;63900;50.916;6.988;2022-09-28T16:15:57;99425.47;;;11.55;76.47
75304;BME280;63900;50.916;6.988;2022-09-28T16:18:24;99419.59;;;11.50;74.18
75304;BME280;63900;50.916;6.988;2022-09-28T16:20:52;99427.47;;;11.44;72.31
75304;BME280;63900;50.916;6.988;2022-09-28T16:26:01;99432.81;;;11.71;67.89
75304;BME280;63900;50.916;6.988;2022-09-28T16:28:48;99437.97;;;11.71;66.32
75304;BME280;63900;50.916;6.988;2022-09-28T16:33:51;99433.59;;;11.38;70.08
75304;BME280;63900;50.916;6.988;2022-09-28T16:36:21;99438.78;;;11.37;68.87
75304;BME280;63900;50.916;6.988;2022-09-28T16:38:47;99449.28;;;11.26;69.14
75304;BME280;63900;50.916;6.988;2022-09-28T16:41:20;99445.09;;;11.22;69.69
75304;BME280;63900;50.916;6.988;2022-09-28T16:43:47;99460.66;;;11.14;70.63
75304;BME280;63900;50.916;6.988;2022-09-28T16:46:14;99462.53;;;11.06;71.21
75304;BME280;63900;50.916;6.988;2022-09-28T16:48:46;99458.34;;;11.02;71.39
75304;BME280;63900;50.916;6.988;2022-09-28T16:53:40;99453.44;;;10.93;73.12
75304;BME280;63900;50.916;6.988;2022-09-28T16:56:35;99460.38;;;10.90;71.37
75304;BME280;63900;50.916;6.988;2022-09-28T16:59:01;99453.59;;;10.85;71.26
75304;BME280;63900;50.916;6.988;2022-09-28T17:01:26;99461.22;;;10.90;71.73
75304;BME280;63900;50.916;6.988;2022-09-28T17:03:54;99479.00;;;10.98;70.89
75304;BME280;63900;50.916;6.988;2022-09-28T17:06:21;99471.25;;;10.99;70.26
75304;BME280;63900;50.916;6.988;2022-09-28T17:08:49;99486.72;;;10.96;70.92
75304;BME280;63900;50.916;6.988;2022-09-28T17:11:17;99483.47;;;10.88;71.39
75304;BME280;63900;50.916;6.988;2022-09-28T17:13:44;99486.13;;;10.85;71.19
75304;BME280;63900;50.916;6.988;2022-09-28T17:16:19;99489.63;;;10.81;72.07
75304;BME280;63900;50.916;6.988;2022-09-28T17:18:45;99494.03;;;10.74;72.15
75304;BME280;63900;50.916;6.988;2022-09-28T17:21:13;99494.75;;;10.79;71.06
75304;BME280;63900;50.916;6.988;2022-09-28T17:23:40;99481.13;;;10.77;70.81
75304;BME280;63900;50.916;6.988;2022-09-28T17:26:05;99495.69;;;10.75;71.09
75304;BME280;63900;50.916;6.988;2022-09-28T17:28:33;99495.69;;;10.75;71.41
75304;BME280;63900;50.916;6.988;2022-09-28T17:30:58;99498.41;;;10.68;72.17
75304;BME280;63900;50.916;6.988;2022-09-28T17:33:23;99499.34;;;10.65;71.71
75304;BME280;63900;50.916;6.988;2022-09-28T17:35:51;99502.13;;;10.53;73.17
75304;BME280;63900;50.916;6.988;2022-09-28T17:38:17;99510.59;;;10.57;72.68
75304;BME280;63900;50.916;6.988;2022-09-28T17:40:43;99510.69;;;10.52;73.40
75304;BME280;63900;50.916;6.988;2022-09-28T17:43:09;99506.44;;;10.51;73.95
75304;BME280;63900;50.916;6.988;2022-09-28T17:45:36;99505.69;;;10.46;75.81
75304;BME280;63900;50.916;6.988;2022-09-28T17:48:04;99510.13;;;10.38;75.96
75304;BME280;63900;50.916;6.988;2022-09-28T17:50:31;99510.25;;;10.30;76.89
75304;BME280;63900;50.916;6.988;2022-09-28T17:52:58;99515.53;;;10.20;76.74
75304;BME280;63900;50.916;6.988;2022-09-28T17:55:29;99514.84;;;10.09;78.24
75304;BME280;63900;50.916;6.988;2022-09-28T17:57:56;99519.25;;;10.01;78.51
75304;BME280;63900;50.916;6.988;2022-09-28T18:00:22;99520.38;;;9.86;78.86
75304;BME280;63900;50.916;6.988;2022-09-28T18:02:54;99522.19;;;9.79;79.86
75304;BME280;63900;50.916;6.988;2022-09-28T18:05:20;99520.69;;;9.65;81.14
75304;BME280;63900;50.916;6.988;2022-09-28T18:07:47;99522.63;;;9.49;82.24
75304;BME280;63900;50.916;6.988;2022-09-28T18:10:18;99533.09;;;9.35;84.63
75304;BME280;63900;50.916;6.988;2022-09-28T18:12:45;99524.72;;;9.21;85.15
75304;BME280;63900;50.916;6.988;2022-09-28T18:15:11;99531.75;;;9.06;86.13
75304;BME280;63900;50.916;6.988;2022-09-28T18:17:37;99531.09;;;8.91;87.02
75304;BME280;63900;50.916;6.988;2022-09-28T18:20:04;99536.25;;;8.85;87.51
75304;BME280;63900;50.916;6.988;2022-09-28T18:22:30;99526.97;;;8.78;88.20
75304;BME280;63900;50.916;6.988;2022-09-28T18:24:55;99548.28;;;8.80;87.77
75304;BME280;63900;50.916;6.988;2022-09-28T18:27:20;99539.66;;;8.86;88.30
75304;BME280;63900;50.916;6.988;2022-09-28T18:29:46;99542.13;;;8.95;88.22
75304;BME280;63900;50.916;6.988;2022-09-28T18:32:11;99544.59;;;9.01;87.13
75304;BME280;63900;50.916;6.988;2022-09-28T18:34:36;99537.75;;;9.05;86.95
75304;BME280;63900;50.916;6.988;2022-09-28T18:37:02;99549.59;;;9.12;86.71
75304;BME280;63900;50.916;6.988;2022-09-28T18:39:27;99547.91;;;9.11;86.95
75304;BME280;63900;50.916;6.988;2022-09-28T18:41:53;99539.38;;;9.09;86.35
75304;BME280;63900;50.916;6.988;2022-09-28T18:44:18;99547.13;;;9.04;86.06
75304;BME280;63900;50.916;6.988;2022-09-28T18:46:44;99548.06;;;8.97;87.07
75304;BME280;63900;50.916;6.988;2022-09-28T18:49:09;99549.88;;;8.87;86.29
75304;BME280;63900;50.916;6.988;2022-09-28T18:51:34;99548.38;;;8.73;86.48
75304;BME280;63900;50.916;6.988;2022-09-28T18:54:00;99549.31;;;8.63;87.66
75304;BME280;63900;50.916;6.988;2022-09-28T18:56:30;99545.13;;;8.56;87.61
75304;BME280;63900;50.916;6.988;2022-09-28T18:58:56;99557.91;;;8.56;87.68
75304;BME280;63900;50.916;6.988;2022-09-28T19:01:22;99558.84;;;8.48;88.02
75304;BME280;63900;50.916;6.988;2022-09-28T19:03:47;99559.78;;;8.40;88.56
75304;BME280;63900;50.916;6.988;2022-09-28T19:06:14;99553.03;;;8.31;88.59
75304;BME280;63900;50.916;6.988;2022-09-28T19:08:41;99552.22;;;8.23;88.32
75304;BME280;63900;50.916;6.988;2022-09-28T19:11:12;99554.06;;;8.09;88.81
75304;BME280;63900;50.916;6.988;2022-09-28T19:13:39;99553.28;;;8.01;89.80
75304;BME280;63900;50.916;6.988;2022-09-28T19:16:06;99553.38;;;7.89;89.87
75304;BME280;63900;50.916;6.988;2022-09-28T19:18:33;99559.31;;;7.88;89.72
75304;BME280;63900;50.916;6.988;2022-09-28T19:21:03;99555.13;;;7.81;89.86
75304;BME280;63900;50.916;6.988;2022-09-28T19:23:28;99562.81;;;7.75;90.51
75304;BME280;63900;50.916;6.988;2022-09-28T19:25:54;99567.09;;;7.73;90.31
75304;BME280;63900;50.916;6.988;2022-09-28T19:28:19;99568.78;;;7.72;90.19
75304;BME280;63900;50.916;6.988;2022-09-28T19:30:44;99573.06;;;7.72;90.46
75304;BME280;63900;50.916;6.988;2022-09-28T19:33:09;99573.06;;;7.72;91.05
75304;BME280;63900;50.916;6.988;2022-09-28T19:35:34;99572.22;;;7.67;91.07
75304;BME280;63900;50.916;6.988;2022-09-28T19:38:00;99573.09;;;7.64;91.22
75304;BME280;63900;50.916;6.988;2022-09-28T19:40:25;99574.78;;;7.68;90.90
75304;BME280;63900;50.916;6.988;2022-09-28T19:42:50;99580.75;;;7.66;91.14
75304;BME280;63900;50.916;6.988;2022-09-28T19:45:16;99581.63;;;7.60;90.64
75304;BME280;63900;50.916;6.988;2022-09-28T19:47:41;99580.81;;;7.55;90.86
75304;BME280;63900;50.916;6.988;2022-09-28T19:50:06;99583.44;;;7.46;91.63
75304;BME280;63900;50.916;6.988;2022-09-28T19:52:32;99581.75;;;7.40;91.64
75304;BME280;63900;50.916;6.988;2022-09-28T19:54:57;99590.25;;;7.41;91.33
75304;BME280;63900;50.916;6.988;2022-09-28T19:57:26;99580.91;;;7.37;91.43
75304;BME280;63900;50.916;6.988;2022-09-28T19:59:52;99573.31;;;7.31;91.69
75304;BME280;63900;50.916;6.988;2022-09-28T20:02:18;99584.28;;;7.40;91.23
75304;BME280;63900;50.916;6.988;2022-09-28T20:04:43;99589.38;;;7.45;91.40
75304;BME280;63900;50.916;6.988;2022-09-28T20:07:09;99586.81;;;7.49;92.25
75304;BME280;63900;50.916;6.988;2022-09-28T20:09:34;99593.56;;;7.55;91.14
75304;BME280;63900;50.916;6.988;2022-09-28T20:12:00;99590.97;;;7.66;91.33
75304;BME280;63900;50.916;6.988;2022-09-28T20:14:25;99596.00;;;7.78;91.78
75304;BME280;63900;50.916;6.988;2022-09-28T20:16:50;99587.41;;;7.86;90.62
75304;BME280;63900;50.916;6.988;2022-09-28T20:19:16;99595.03;;;7.91;90.89
75304;BME280;63900;50.916;6.988;2022-09-28T20:21:43;99585.66;;;7.96;90.79
75304;BME280;63900;50.916;6.988;2022-09-28T20:24:09;99590.75;;;7.97;91.12
75304;BME280;63900;50.916;6.988;2022-09-28T20:26:35;99601.75;;;8.04;91.38
75304;BME280;63900;50.916;6.988;2022-09-28T20:29:05;99601.72;;;8.07;90.74
75304;BME280;63900;50.916;6.988;2022-09-28T20:31:32;99588.94;;;8.10;90.47
75304;BME280;63900;50.916;6.988;2022-09-28T20:34:00;99586.38;;;8.12;90.70
75304;BME280;63900;50.916;6.988;2022-09-28T20:36:25;99582.94;;;8.14;91.17
75304;BME280;63900;50.916;6.988;2022-09-28T20:38:53;99592.31;;;8.17;90.52
75304;BME280;63900;50.916;6.988;2022-09-28T20:41:20;99588.88;;;8.21;90.93
75304;BME280;63900;50.916;6.988;2022-09-28T20:43:49;99593.94;;;8.25;90.13
75304;BME280;63900;50.916;6.988;2022-09-28T20:46:14;99593.91;;;8.27;89.88
75304;BME280;63900;50.916;6.988;2022-09-28T20:48:41;99588.81;;;8.33;89.60
75304;BME280;63900;50.916;6.988;2022-09-28T20:51:11;99592.16;;;8.36;90.17
75304;BME280;63900;50.916;6.988;2022-09-28T20:53:38;99578.50;;;8.39;88.97
75304;BME280;63900;50.916;6.988;2022-09-28T20:56:10;99581.91;;;8.41;90.13
75304;BME280;63900;50.916;6.988;2022-09-28T20:58:39;99582.69;;;8.49;89.92
75304;BME280;63900;50.916;6.988;2022-09-28T21:01:10;99580.97;;;8.49;89.95
75304;BME280;63900;50.916;6.988;2022-09-28T21:03:36;99591.19;;;8.52;89.74
75304;BME280;63900;50.916;6.988;2022-09-28T21:06:04;99587.72;;;8.53;90.29
75304;BME280;63900;50.916;6.988;2022-09-28T21:08:29;99589.44;;;8.55;89.63
75304;BME280;63900;50.916;6.988;2022-09-28T21:10:55;99584.31;;;8.55;89.70
75304;BME280;63900;50.916;6.988;2022-09-28T21:13:20;99589.41;;;8.59;89.88
75304;BME280;63900;50.916;6.988;2022-09-28T21:15:49;99591.06;;;8.62;90.15
75304;BME280;63900;50.916;6.988;2022-09-28T21:18:16;99584.28;;;8.59;89.84
75304;BME280;63900;50.916;6.988;2022-09-28T21:20:49;99582.53;;;8.63;89.73
75304;BME280;63900;50.916;6.988;2022-09-28T21:23:16;99584.25;;;8.64;89.97
75304;BME280;63900;50.916;6.988;2022-09-28T21:25:42;99593.56;;;8.66;89.69
75304;BME280;63900;50.916;6.988;2022-09-28T21:28:15;99590.16;;;8.67;89.45
75304;BME280;63900;50.916;6.988;2022-09-28T21:30:40;99594.38;;;8.70;89.91
75304;BME280;63900;50.916;6.988;2022-09-28T21:33:06;99585.06;;;8.69;88.63
75304;BME280;63900;50.916;6.988;2022-09-28T21:35:35;99589.31;;;8.68;89.31
75304;BME280;63900;50.916;6.988;2022-09-28T21:38:02;99593.53;;;8.71;90.03
75304;BME280;63900;50.916;6.988;2022-09-28T21:40:27;99586.72;;;8.71;89.18
75304;BME280;63900;50.916;6.988;2022-09-28T21:42:52;99587.56;;;8.72;89.33
75304;BME280;63900;50.916;6.988;2022-09-28T21:45:18;99592.66;;;8.73;89.47
75304;BME280;63900;50.916;6.988;2022-09-28T21:47:43;99590.94;;;8.74;89.43
75304;BME280;63900;50.916;6.988;2022-09-28T21:50:17;99587.56;;;8.72;88.11
75304;BME280;63900;50.916;6.988;2022-09-28T21:52:42;99590.94;;;8.75;88.89
75304;BME280;63900;50.916;6.988;2022-09-28T21:55:08;99592.59;;;8.78;87.83
75304;BME280;63900;50.916;6.988;2022-09-28T21:57:33;99592.59;;;8.81;88.44
75304;BME280;63900;50.916;6.988;2022-09-28T21:59:58;99596.81;;;8.83;88.50
75304;BME280;63900;50.916;6.988;2022-09-28T22:02:24;99591.75;;;8.80;88.29
75304;BME280;63900;50.916;6.988;2022-09-28T22:04:49;99586.59;;;8.82;88.48
75304;BME280;63900;50.916;6.988;2022-09-28T22:07:14;99596.00;;;8.80;89.19
75304;BME280;63900;50.916;6.988;2022-09-28T22:09:39;99598.56;;;8.80;88.84
75304;BME280;63900;50.916;6.988;2022-09-28T22:12:04;99607.09;;;8.79;90.05
75304;BME280;63900;50.916;6.988;2022-09-28T22:14:30;99598.59;;;8.75;89.24
75304;BME280;63900;50.916;6.988;2022-09-28T22:16:55;99584.19;;;8.67;89.98
75304;BME280;63900;50.916;6.988;2022-09-28T22:19:20;99605.44;;;8.75;90.10
75304;BME280;63900;50.916;6.988;2022-09-28T22:21:45;99608.84;;;8.74;89.41
75304;BME280;63900;50.916;6.988;2022-09-28T22:24:11;99605.44;;;8.73;88.92
75304;BME280;63900;50.916;6.988;2022-09-28T22:26:37;99602.91;;;8.72;88.64
75304;BME280;63900;50.916;6.988;2022-09-28T22:29:05;99601.22;;;8.71;89.68
75304;BME280;63900;50.916;6.988;2022-09-28T22:31:34;99602.06;;;8.71;89.40
75304;BME280;63900;50.916;6.988;2022-09-28T22:34:00;99608.03;;;8.72;89.42
75304;BME280;63900;50.916;6.988;2022-09-28T22:36:25;99605.50;;;8.69;89.57
75304;BME280;63900;50.916;6.988;2022-09-28T22:38:53;99611.44;;;8.69;89.41
75304;BME280;63900;50.916;6.988;2022-09-28T22:41:19;99601.25;;;8.66;89.55
75304;BME280;63900;50.916;6.988;2022-09-28T22:43:46;99599.53;;;8.67;89.19
75304;BME280;63900;50.916;6.988;2022-09-28T22:46:13;99605.50;;;8.66;90.30
75304;BME280;63900;50.916;6.988;2022-09-28T22:48:39;99604.69;;;8.62;89.86
75304;BME280;63900;50.916;6.988;2022-09-28T22:51:06;99609.81;;;8.62;89.61
75304;BME280;63900;50.916;6.988;2022-09-28T22:53:32;99620.91;;;8.60;89.65
75304;BME280;63900;50.916;6.988;2022-09-28T22:55:58;99616.66;;;8.59;89.63
75304;BME280;63900;50.916;6.988;2022-09-28T22:58:24;99609.88;;;8.55;89.50
75304;BME280;63900;50.916;6.988;2022-09-28T23:00:50;99615.00;;;8.55;89.96
75304;BME280;63900;50.916;6.988;2022-09-28T23:03:15;99618.41;;;8.57;90.23
75304;BME280;63900;50.916;6.988;2022-09-28T23:05:53;99619.25;;;8.57;89.60
75304;BME280;63900;50.916;6.988;2022-09-28T23:08:18;99608.19;;;8.53;90.03
75304;BME280;63900;50.916;6.988;2022-09-28T23:10:44;99617.56;;;8.55;90.86
75304;BME280;63900;50.916;6.988;2022-09-28T23:13:10;99616.72;;;8.52;89.76
75304;BME280;63900;50.916;6.988;2022-09-28T23:15:35;99606.53;;;8.48;89.65
75304;BME280;63900;50.916;6.988;2022-09-28T23:18:00;99613.34;;;8.49;89.97
75304;BME280;63900;50.916;6.988;2022-09-28T23:20:25;99617.63;;;8.47;89.79
75304;BME280;63900;50.916;6.988;2022-09-28T23:22:51;99614.25;;;8.45;90.16
75304;BME280;63900;50.916;6.988;2022-09-28T23:25:17;99603.22;;;8.40;90.26
75304;BME280;63900;50.916;6.988;2022-09-28T23:27:46;99609.13;;;8.42;90.83
75304;BME280;63900;50.916;6.988;2022-09-28T23:30:13;99606.63;;;8.39;91.33
75304;BME280;63900;50.916;6.988;2022-09-28T23:32:38;99618.56;;;8.35;91.05
75304;BME280;63900;50.916;6.988;2022-09-28T23:35:04;99610.94;;;8.31;90.93
75304;BME280;63900;50.916;6.988;2022-09-28T23:37:29;99603.31;;;8.23;91.76
75304;BME280;63900;50.916;6.988;2022-09-28T23:39:55;99607.59;;;8.18;91.15
75304;BME280;63900;50.916;6.988;2022-09-28T23:42:20;99611.91;;;8.16;91.71
75304;BME280;63900;50.916;6.988;2022-09-28T23:44:45;99605.09;;;8.11;92.33
75304;BME280;63900;50.916;6.988;2022-09-28T23:47:10;99603.47;;;8.05;92.08
75304;BME280;63900;50.916;6.988;2022-09-28T23:49:36;99604.34;;;8.01;91.96
75304;BME280;63900;50.916;6.988;2022-09-28T23:52:01;99611.19;;;7.94;92.10
75304;BME280;63900;50.916;6.988;2022-09-28T23:54:26;99598.47;;;7.88;92.90
75304;BME280;63900;50.916;6.988;2022-09-28T23:56:51;99606.19;;;7.81;92.50
75304;BME280;63900;50.916;6.988;2022-09-28T23:59:17;99607.06;;;7.77;92.96
